Time;durP1;ratioP1;P1;durP2;ratioP2;P2;SDS_P1;SDS_P2;PMS_P1;PMS_P2;Temp;Humidity;BMP_temperature;BMP_pressure;BME280_temperature;BME280_humidity;BME280_pressure;Samples;Min_cycle;Max_cycle;Signal;HPM_P1;HPM_P2
2022/11/03 00:01:47;;;;;;;16.23;6.57;;;;;;;;;;4979775;28;20979;-82
2022/11/03 00:04:15;;;;;;;16.23;6.20;;;;;;;;;;4995305;28;20204;-82
2022/11/03 00:06:42;;;;;;;15.70;6.20;;;;;;;;;;4995882;28;20203;-81
2022/11/03 00:09:09;;;;;;;15.77;6.10;;;;;;;;;;5011749;28;20188;-82
2022/11/03 00:11:36;;;;;;;14.50;6.40;;;;;;;;;;4994406;28;20218;-82
2022/11/03 00:14:03;;;;;;;12.10;6.13;;;;;;;;;;5011722;28;20179;-82
2022/11/03 00:16:29;;;;;;;17.17;6.97;;;;;;;;;;5010898;28;20216;-82
2022/11/03 00:18:55;;;;;;;15.17;6.90;;;;;;;;;;4994910;28;20544;-82
2022/11/03 00:21:21;;;;;;;12.47;6.30;;;;;;;;;;4993464;28;20223;-82
2022/11/03 00:23:48;;;;;;;11.57;5.93;;;;;;;;;;4993577;28;20576;-82
2022/11/03 00:26:22;;;;;;;13.87;6.10;;;;;;;;;;4996717;28;20184;-82
2022/11/03 00:28:49;;;;;;;13.07;5.80;;;;;;;;;;5008654;28;20220;-82
2022/11/03 00:31:18;;;;;;;11.33;5.40;;;;;;;;;;4979717;28;20249;-82
2022/11/03 00:33:45;;;;;;;14.13;6.13;;;;;;;;;;4981440;28;20283;-82
2022/11/03 00:36:12;;;;;;;9.87;5.73;;;;;;;;;;4986580;28;20192;-82
2022/11/03 00:38:38;;;;;;;12.73;5.80;;;;;;;;;;4990327;28;20278;-82
2022/11/03 00:41:05;;;;;;;9.87;4.83;;;;;;;;;;5010353;28;20648;-82
2022/11/03 00:43:33;;;;;;;10.97;5.63;;;;;;;;;;5010511;28;20212;-82
2022/11/03 00:45:59;;;;;;;13.10;5.70;;;;;;;;;;4994737;28;20181;-82
2022/11/03 00:48:28;;;;;;;13.03;5.80;;;;;;;;;;4992892;28;20238;-82
2022/11/03 00:50:54;;;;;;;12.07;5.37;;;;;;;;;;4990959;28;20186;-82
2022/11/03 00:53:20;;;;;;;12.40;5.73;;;;;;;;;;4990573;28;20220;-82
2022/11/03 00:55:49;;;;;;;14.37;5.10;;;;;;;;;;4981934;28;20588;-82
2022/11/03 00:58:15;;;;;;;11.73;5.57;;;;;;;;;;4993613;28;20203;-82
2022/11/03 01:00:42;;;;;;;11.67;5.07;;;;;;;;;;4995038;28;20175;-82
2022/11/03 01:03:08;;;;;;;10.07;5.50;;;;;;;;;;5006455;28;20803;-82
2022/11/03 01:08:18;;;;;;;7.93;5.30;;;;;;;;;;4986102;28;20584;-82
2022/11/03 01:11:42;;;;;;;13.43;6.07;;;;;;;;;;4993587;28;20180;-82
2022/11/03 01:13:30;;;;;;;9.63;5.43;;;;;;;;;;4978279;28;20192;-82
2022/11/03 01:15:57;;;;;;;10.03;5.60;;;;;;;;;;4994034;28;20234;-82
2022/11/03 01:18:23;;;;;;;12.80;5.83;;;;;;;;;;4978608;28;20176;-83
2022/11/03 01:20:56;;;;;;;14.10;6.40;;;;;;;;;;4990317;28;20588;-82
2022/11/03 01:23:22;;;;;;;14.00;6.47;;;;;;;;;;5009489;28;20207;-82
2022/11/03 01:25:49;;;;;;;11.80;6.23;;;;;;;;;;4987983;28;20180;-82
2022/11/03 01:28:15;;;;;;;13.47;6.60;;;;;;;;;;4992614;28;20179;-82
2022/11/03 01:30:41;;;;;;;19.73;7.63;;;;;;;;;;4994219;28;20176;-82
2022/11/03 01:33:07;;;;;;;16.63;7.57;;;;;;;;;;4985093;28;20195;-81
2022/11/03 01:35:33;;;;;;;17.37;7.73;;;;;;;;;;4988035;28;20192;-82
2022/11/03 01:37:59;;;;;;;15.40;7.87;;;;;;;;;;4991444;28;20258;-82
2022/11/03 01:40:25;;;;;;;23.77;9.20;;;;;;;;;;4995082;28;20204;-82
2022/11/03 01:42:51;;;;;;;16.90;8.53;;;;;;;;;;4993812;28;20239;-82
2022/11/03 01:45:17;;;;;;;15.70;9.57;;;;;;;;;;5009640;28;20192;-82
2022/11/03 01:47:43;;;;;;;17.87;9.03;;;;;;;;;;5009143;28;20183;-82
2022/11/03 01:50:09;;;;;;;17.10;8.93;;;;;;;;;;5009267;28;20207;-83
2022/11/03 01:52:47;;;;;;;21.60;9.73;;;;;;;;;;5009154;28;20215;-82
2022/11/03 01:55:16;;;;;;;21.07;9.53;;;;;;;;;;4978501;28;20176;-82
2022/11/03 01:57:51;;;;;;;20.40;8.67;;;;;;;;;;4994859;28;20179;-82
2022/11/03 02:00:17;;;;;;;18.63;10.10;;;;;;;;;;4998365;28;20192;-82
2022/11/03 02:02:43;;;;;;;19.97;9.43;;;;;;;;;;4980286;28;20192;-82
2022/11/03 02:05:10;;;;;;;20.57;10.27;;;;;;;;;;4982821;28;20179;-82
2022/11/03 02:07:55;;;;;;;21.20;10.47;;;;;;;;;;4977910;28;20237;-83
2022/11/03 02:10:21;;;;;;;18.73;10.33;;;;;;;;;;4992495;28;20183;-82
2022/11/03 02:12:47;;;;;;;19.53;10.70;;;;;;;;;;4993557;28;20182;-82
2022/11/03 02:15:15;;;;;;;19.43;10.03;;;;;;;;;;4986681;28;20238;-82
2022/11/03 02:17:42;;;;;;;19.13;10.40;;;;;;;;;;5008763;28;20188;-82
2022/11/03 02:20:19;;;;;;;21.47;11.00;;;;;;;;;;5005507;28;20230;-82
2022/11/03 02:23:04;;;;;;;17.57;10.83;;;;;;;;;;4977411;28;20641;-82
2022/11/03 02:25:33;;;;;;;23.23;10.97;;;;;;;;;;4976781;28;20186;-82
2022/11/03 02:27:59;;;;;;;23.13;10.97;;;;;;;;;;4989774;28;20179;-83
2022/11/03 02:30:31;;;;;;;18.57;10.43;;;;;;;;;;5008631;28;20205;-82
2022/11/03 02:33:03;;;;;;;21.13;11.50;;;;;;;;;;4991332;28;20191;-82
2022/11/03 02:35:33;;;;;;;17.33;9.93;;;;;;;;;;5007990;28;20675;-82
2022/11/03 02:38:00;;;;;;;16.93;10.20;;;;;;;;;;4990736;28;20545;-82
2022/11/03 02:40:32;;;;;;;18.43;10.27;;;;;;;;;;5008038;28;20579;-81
2022/11/03 02:42:58;;;;;;;20.37;10.37;;;;;;;;;;4988933;28;20569;-82
2022/11/03 02:45:25;;;;;;;20.70;10.60;;;;;;;;;;4988855;28;20227;-82
2022/11/03 02:47:54;;;;;;;21.73;10.07;;;;;;;;;;5009124;28;20198;-82
2022/11/03 02:50:21;;;;;;;20.37;10.67;;;;;;;;;;5006464;28;20187;-84
2022/11/03 02:52:51;;;;;;;17.70;10.40;;;;;;;;;;4980811;28;20189;-82
2022/11/03 02:55:26;;;;;;;19.63;10.63;;;;;;;;;;4992059;28;20242;-82
2022/11/03 02:58:12;;;;;;;15.43;10.40;;;;;;;;;;4993986;28;20183;-83
2022/11/03 03:00:43;;;;;;;17.23;10.77;;;;;;;;;;4971406;28;20224;-83
2022/11/03 03:03:13;;;;;;;20.57;11.10;;;;;;;;;;4954608;28;20224;-83
2022/11/03 03:05:41;;;;;;;16.23;10.73;;;;;;;;;;4955127;28;20261;-82
2022/11/03 03:08:09;;;;;;;25.83;10.80;;;;;;;;;;4955000;28;20190;-83
2022/11/03 03:10:38;;;;;;;17.77;10.20;;;;;;;;;;4957806;28;20692;-83
2022/11/03 03:13:05;;;;;;;17.70;9.97;;;;;;;;;;4955891;28;20697;-82
2022/11/03 03:15:44;;;;;;;16.13;9.67;;;;;;;;;;4955186;28;20227;-82
2022/11/03 03:18:16;;;;;;;19.37;10.10;;;;;;;;;;4971386;28;20679;-83
2022/11/03 03:20:51;;;;;;;16.87;9.37;;;;;;;;;;4954958;28;20224;-82
2022/11/03 03:23:22;;;;;;;18.20;9.77;;;;;;;;;;4955671;28;20218;-82
2022/11/03 03:25:51;;;;;;;19.47;10.97;;;;;;;;;;4972105;28;20287;-83
2022/11/03 03:28:20;;;;;;;18.60;10.27;;;;;;;;;;4972411;28;20638;-83
2022/11/03 03:30:46;;;;;;;22.50;11.03;;;;;;;;;;4950377;28;20193;-82
2022/11/03 03:33:14;;;;;;;21.70;10.33;;;;;;;;;;4954588;28;20314;-82
2022/11/03 03:35:41;;;;;;;18.80;10.67;;;;;;;;;;4970500;28;20203;-83
2022/11/03 03:38:09;;;;;;;15.33;9.70;;;;;;;;;;4983024;28;20641;-82
2022/11/03 03:40:37;;;;;;;17.70;9.67;;;;;;;;;;5006280;28;20650;-83
2022/11/03 03:43:04;;;;;;;24.67;10.20;;;;;;;;;;4991903;28;20680;-83
2022/11/03 03:45:31;;;;;;;20.17;10.00;;;;;;;;;;4992471;28;20271;-83
2022/11/03 03:47:57;;;;;;;17.90;10.33;;;;;;;;;;5007640;28;20184;-83
2022/11/03 03:50:25;;;;;;;16.47;10.00;;;;;;;;;;5005747;28;20192;-83
2022/11/03 03:52:54;;;;;;;14.07;9.00;;;;;;;;;;5006573;28;20193;-82
2022/11/03 03:55:21;;;;;;;21.70;9.13;;;;;;;;;;4992080;28;20211;-82
2022/11/03 03:57:47;;;;;;;19.00;9.53;;;;;;;;;;4985857;28;20659;-83
2022/11/03 04:00:14;;;;;;;17.93;9.47;;;;;;;;;;4975084;28;20195;-83
2022/11/03 04:02:41;;;;;;;15.80;9.33;;;;;;;;;;4980432;28;20322;-82
2022/11/03 04:05:07;;;;;;;22.83;9.87;;;;;;;;;;5006987;28;20667;-83
2022/11/03 04:07:48;;;;;;;18.17;8.67;;;;;;;;;;4990419;28;20261;-82
2022/11/03 04:10:15;;;;;;;18.83;9.20;;;;;;;;;;4973028;28;20180;-82
2022/11/03 04:23:40;;;;;;;18.67;9.83;;;;;;;;;;4981146;28;20231;-83
2022/11/03 04:26:10;;;;;;;16.23;9.27;;;;;;;;;;4976241;28;20187;-82
2022/11/03 04:28:36;;;;;;;19.87;9.50;;;;;;;;;;4975164;28;20195;-83
2022/11/03 04:31:02;;;;;;;17.93;9.30;;;;;;;;;;4993191;28;20178;-83
2022/11/03 04:33:29;;;;;;;16.63;9.33;;;;;;;;;;4991119;28;20206;-83
2022/11/03 04:35:55;;;;;;;17.20;9.40;;;;;;;;;;4992061;28;20711;-84
2022/11/03 04:38:22;;;;;;;17.07;10.13;;;;;;;;;;4987894;28;20234;-82
2022/11/03 04:40:49;;;;;;;15.10;9.67;;;;;;;;;;4984049;28;20199;-82
2022/11/03 04:43:18;;;;;;;17.57;9.23;;;;;;;;;;4991892;28;20202;-82
2022/11/03 04:45:45;;;;;;;14.83;9.87;;;;;;;;;;4990829;28;20215;-83
2022/11/03 04:48:13;;;;;;;20.13;10.30;;;;;;;;;;4993325;28;20207;-83
2022/11/03 04:50:39;;;;;;;19.30;9.87;;;;;;;;;;4993465;28;20188;-83
2022/11/03 04:53:09;;;;;;;19.03;10.10;;;;;;;;;;5011316;28;20195;-83
2022/11/03 04:55:35;;;;;;;17.17;9.83;;;;;;;;;;4988882;28;20191;-82
2022/11/03 04:58:06;;;;;;;18.87;9.70;;;;;;;;;;4993976;28;20203;-82
2022/11/03 05:00:32;;;;;;;21.03;10.07;;;;;;;;;;4992406;28;20219;-83
2022/11/03 05:02:58;;;;;;;18.93;9.73;;;;;;;;;;4992667;28;20236;-83
2022/11/03 05:05:25;;;;;;;18.17;10.77;;;;;;;;;;4993915;28;20563;-82
2022/11/03 05:07:53;;;;;;;19.07;10.30;;;;;;;;;;5007434;28;20224;-82
2022/11/03 05:10:20;;;;;;;20.73;10.30;;;;;;;;;;4988906;28;20179;-81
2022/11/03 05:12:47;;;;;;;17.47;10.30;;;;;;;;;;4995688;28;20187;-82
2022/11/03 05:15:29;;;;;;;18.20;9.60;;;;;;;;;;4995049;28;20581;-83
2022/11/03 05:17:55;;;;;;;20.27;10.37;;;;;;;;;;4992652;28;20271;-83
2022/11/03 05:20:36;;;;;;;18.97;11.03;;;;;;;;;;5009521;28;20224;-83
2022/11/03 05:23:02;;;;;;;21.63;11.00;;;;;;;;;;5007158;28;20216;-83
2022/11/03 05:25:39;;;;;;;20.10;11.13;;;;;;;;;;4994014;28;20176;-83
2022/11/03 05:28:13;;;;;;;20.07;10.50;;;;;;;;;;4980664;28;20184;-82
2022/11/03 05:30:39;;;;;;;20.67;10.50;;;;;;;;;;4993519;28;20234;-82
2022/11/03 05:33:26;;;;;;;19.70;10.83;;;;;;;;;;4990226;28;20641;-82
2022/11/03 05:35:52;;;;;;;18.73;10.23;;;;;;;;;;4994637;28;20186;-83
2022/11/03 05:38:19;;;;;;;21.27;10.27;;;;;;;;;;4989450;28;20614;-80
2022/11/03 05:40:45;;;;;;;15.07;11.03;;;;;;;;;;5008867;28;20237;-82
2022/11/03 05:43:12;;;;;;;26.43;11.40;;;;;;;;;;4974292;28;20212;-83
2022/11/03 05:45:39;;;;;;;19.10;10.90;;;;;;;;;;4986294;28;20280;-82
2022/11/03 05:48:15;;;;;;;22.50;10.67;;;;;;;;;;4987884;28;20187;-82
2022/11/03 05:50:41;;;;;;;22.77;11.13;;;;;;;;;;4996935;28;20538;-80
2022/11/03 05:53:26;;;;;;;15.93;10.77;;;;;;;;;;4985914;28;20188;-80
2022/11/03 05:55:52;;;;;;;19.30;10.93;;;;;;;;;;4993817;28;20295;-81
2022/11/03 05:58:23;;;;;;;22.27;11.40;;;;;;;;;;4989722;28;20365;-82
2022/11/03 06:00:49;;;;;;;20.93;10.63;;;;;;;;;;5006747;28;20192;-82
2022/11/03 06:03:21;;;;;;;19.50;11.33;;;;;;;;;;4987928;28;20241;-81
2022/11/03 06:05:47;;;;;;;18.47;10.50;;;;;;;;;;4983409;28;20303;-83
2022/11/03 06:08:25;;;;;;;15.90;11.03;;;;;;;;;;4989397;28;20336;-81
2022/11/03 06:11:00;;;;;;;23.13;11.97;;;;;;;;;;4992560;28;20290;-82
2022/11/03 06:13:30;;;;;;;22.23;11.00;;;;;;;;;;5008850;28;20191;-82
2022/11/03 06:16:06;;;;;;;19.03;10.97;;;;;;;;;;4992832;28;20183;-81
2022/11/03 06:18:34;;;;;;;23.40;10.07;;;;;;;;;;4987153;28;20195;-80
2022/11/03 06:21:21;;;;;;;20.20;11.77;;;;;;;;;;4983264;28;20680;-81
2022/11/03 06:23:47;;;;;;;17.73;10.77;;;;;;;;;;4988830;28;20213;-81
2022/11/03 06:26:15;;;;;;;17.37;10.73;;;;;;;;;;4979377;28;20244;-80
2022/11/03 06:28:42;;;;;;;19.27;11.63;;;;;;;;;;4998267;28;20195;-81
2022/11/03 06:31:18;;;;;;;15.23;10.10;;;;;;;;;;4995114;28;20180;-80
2022/11/03 06:33:44;;;;;;;17.50;11.13;;;;;;;;;;4978550;28;20283;-81
2022/11/03 06:36:16;;;;;;;20.50;11.10;;;;;;;;;;4977161;28;20645;-80
2022/11/03 06:38:43;;;;;;;25.47;12.07;;;;;;;;;;4997657;28;20200;-82
2022/11/03 06:41:18;;;;;;;21.73;11.10;;;;;;;;;;4988882;28;20589;-80
2022/11/03 06:43:44;;;;;;;19.57;10.57;;;;;;;;;;4990044;28;20218;-81
2022/11/03 06:46:30;;;;;;;19.57;10.53;;;;;;;;;;4992229;28;20191;-82
2022/11/03 06:48:58;;;;;;;18.37;10.37;;;;;;;;;;4977715;28;20183;-81
2022/11/03 06:51:28;;;;;;;17.00;10.30;;;;;;;;;;5003350;28;20618;-82
2022/11/03 06:53:54;;;;;;;14.17;9.87;;;;;;;;;;4987397;28;20206;-81
2022/11/03 06:56:28;;;;;;;16.47;9.63;;;;;;;;;;4980916;28;20271;-81
2022/11/03 06:58:55;;;;;;;21.60;11.07;;;;;;;;;;4990181;28;20195;-81
2022/11/03 07:01:23;;;;;;;14.93;9.63;;;;;;;;;;4973253;28;20622;-80
2022/11/03 07:03:50;;;;;;;17.07;10.20;;;;;;;;;;5007241;28;20247;-80
2022/11/03 07:06:26;;;;;;;14.00;9.93;;;;;;;;;;4989946;28;20193;-81
2022/11/03 07:08:56;;;;;;;17.93;10.43;;;;;;;;;;4993158;28;20179;-81
2022/11/03 07:11:25;;;;;;;20.90;10.30;;;;;;;;;;4986212;28;20191;-81
2022/11/03 07:13:52;;;;;;;22.13;10.73;;;;;;;;;;4993133;28;20191;-81
2022/11/03 07:16:22;;;;;;;21.43;10.17;;;;;;;;;;4992470;28;20183;-81
2022/11/03 07:18:49;;;;;;;17.80;9.80;;;;;;;;;;5003342;28;20192;-80
2022/11/03 07:21:22;;;;;;;20.17;10.13;;;;;;;;;;4986879;28;20235;-80
2022/11/03 07:23:48;;;;;;;20.27;10.57;;;;;;;;;;4988036;28;20200;-80
2022/11/03 07:26:15;;;;;;;17.77;10.47;;;;;;;;;;5009652;28;20183;-84
2022/11/03 07:28:41;;;;;;;19.53;11.03;;;;;;;;;;4996392;28;20179;-83
2022/11/03 07:31:13;;;;;;;19.63;10.43;;;;;;;;;;4996138;28;20184;-82
2022/11/03 07:33:39;;;;;;;20.40;9.60;;;;;;;;;;4994219;28;20176;-82
2022/11/03 07:36:06;;;;;;;16.13;10.67;;;;;;;;;;4981801;28;20192;-81
2022/11/03 07:38:32;;;;;;;26.63;10.67;;;;;;;;;;4983550;28;20180;-84
2022/11/03 07:40:59;;;;;;;17.70;9.67;;;;;;;;;;4989790;28;20168;-83
2022/11/03 07:43:30;;;;;;;26.80;11.17;;;;;;;;;;4994632;28;20204;-82
2022/11/03 07:45:57;;;;;;;23.97;10.07;;;;;;;;;;4976079;28;20180;-83
2022/11/03 07:48:25;;;;;;;24.07;10.70;;;;;;;;;;4985238;28;20191;-82
2022/11/03 07:50:52;;;;;;;30.63;9.97;;;;;;;;;;5005684;28;20164;-81
2022/11/03 07:53:20;;;;;;;30.67;10.60;;;;;;;;;;5025465;28;20182;-81
2022/11/03 07:55:46;;;;;;;24.33;10.13;;;;;;;;;;5015391;28;20471;-82
2022/11/03 07:58:35;;;;;;;15.50;9.30;;;;;;;;;;5017362;28;20553;-84
2022/11/03 08:01:03;;;;;;;26.50;9.40;;;;;;;;;;5001921;28;20183;-81
2022/11/03 08:03:44;;;;;;;20.53;9.53;;;;;;;;;;5007813;28;20235;-80
2022/11/03 08:06:10;;;;;;;23.23;9.77;;;;;;;;;;5030188;28;20176;-80
2022/11/03 08:08:36;;;;;;;22.47;9.63;;;;;;;;;;5014231;28;20196;-80
2022/11/03 08:11:02;;;;;;;18.97;9.13;;;;;;;;;;5005421;28;20176;-80
2022/11/03 08:13:28;;;;;;;26.00;8.60;;;;;;;;;;5013005;28;20182;-80
2022/11/03 08:15:54;;;;;;;21.47;8.97;;;;;;;;;;5001103;28;20188;-80
2022/11/03 08:18:20;;;;;;;26.27;10.10;;;;;;;;;;5004821;28;20238;-81
2022/11/03 08:20:46;;;;;;;15.40;8.73;;;;;;;;;;5011133;28;20245;-82
2022/11/03 08:23:12;;;;;;;21.10;9.13;;;;;;;;;;5027700;28;20212;-81
2022/11/03 08:25:38;;;;;;;22.30;9.77;;;;;;;;;;4984361;28;20203;-83
2022/11/03 08:28:04;;;;;;;23.00;8.63;;;;;;;;;;4991695;28;20677;-81
2022/11/03 08:30:30;;;;;;;21.37;8.70;;;;;;;;;;4983038;28;20196;-80
2022/11/03 08:32:56;;;;;;;19.73;8.70;;;;;;;;;;4980270;28;20189;-81
2022/11/03 08:35:22;;;;;;;18.93;8.20;;;;;;;;;;4998676;28;20191;-81
2022/11/03 08:37:48;;;;;;;22.67;8.57;;;;;;;;;;4995645;28;20176;-82
2022/11/03 08:40:14;;;;;;;26.07;8.10;;;;;;;;;;4997171;28;20643;-82
2022/11/03 08:42:40;;;;;;;24.73;11.70;;;;;;;;;;4985309;28;20593;-82
2022/11/03 08:45:06;;;;;;;20.73;9.10;;;;;;;;;;4987011;28;20310;-82
2022/11/03 08:47:32;;;;;;;13.07;7.50;;;;;;;;;;4989687;28;20202;-81
2022/11/03 08:49:59;;;;;;;14.73;6.80;;;;;;;;;;4994743;28;20266;-79
2022/11/03 08:52:26;;;;;;;16.37;7.33;;;;;;;;;;4995216;28;20217;-80
2022/11/03 08:54:52;;;;;;;15.93;8.53;;;;;;;;;;4989160;28;20230;-81
2022/11/03 08:57:18;;;;;;;16.47;8.70;;;;;;;;;;4979845;28;20181;-81
2022/11/03 08:59:45;;;;;;;15.33;7.57;;;;;;;;;;4983720;28;20525;-82
2022/11/03 09:02:11;;;;;;;12.40;7.27;;;;;;;;;;4995226;28;20188;-82
2022/11/03 09:04:37;;;;;;;12.70;7.40;;;;;;;;;;4994721;28;20210;-81
2022/11/03 09:07:03;;;;;;;15.57;8.23;;;;;;;;;;4989403;28;20176;-81
2022/11/03 09:09:29;;;;;;;16.10;8.93;;;;;;;;;;4987468;28;20196;-80
2022/11/03 09:11:55;;;;;;;19.53;7.60;;;;;;;;;;4980744;28;20636;-81
2022/11/03 09:14:21;;;;;;;16.27;7.20;;;;;;;;;;4995949;28;20215;-81
2022/11/03 09:16:47;;;;;;;14.30;7.27;;;;;;;;;;4989937;28;20294;-81
2022/11/03 09:19:13;;;;;;;15.97;7.83;;;;;;;;;;4993981;28;20271;-81
2022/11/03 09:21:39;;;;;;;14.87;7.33;;;;;;;;;;4991326;28;20228;-81
2022/11/03 09:24:06;;;;;;;14.50;6.57;;;;;;;;;;5009664;28;20218;-82
2022/11/03 09:26:32;;;;;;;15.50;6.30;;;;;;;;;;5009288;28;20196;-81
2022/11/03 09:28:58;;;;;;;14.50;5.77;;;;;;;;;;4994174;28;20180;-81
2022/11/03 09:31:27;;;;;;;15.87;6.27;;;;;;;;;;4994017;28;20593;-82
2022/11/03 09:33:53;;;;;;;15.23;6.60;;;;;;;;;;5008886;28;20195;-81
2022/11/03 09:36:19;;;;;;;13.37;5.53;;;;;;;;;;4984627;28;20184;-82
2022/11/03 09:38:45;;;;;;;18.17;5.77;;;;;;;;;;4992120;28;20186;-82
2022/11/03 09:41:16;;;;;;;13.63;5.90;;;;;;;;;;5009744;28;20640;-82
2022/11/03 09:43:46;;;;;;;16.83;5.20;;;;;;;;;;4993765;28;20663;-82
2022/11/03 09:46:14;;;;;;;15.87;6.07;;;;;;;;;;4991736;28;20176;-82
2022/11/03 09:48:41;;;;;;;14.83;5.80;;;;;;;;;;4987850;28;20200;-82
2022/11/03 09:51:13;;;;;;;22.93;5.77;;;;;;;;;;5009576;28;20184;-82
2022/11/03 09:53:40;;;;;;;17.53;5.10;;;;;;;;;;5009281;28;20199;-82
2022/11/03 09:56:06;;;;;;;15.07;5.53;;;;;;;;;;5006450;28;20188;-82
2022/11/03 09:58:33;;;;;;;16.73;4.93;;;;;;;;;;4981199;28;20172;-81
2022/11/03 10:01:00;;;;;;;10.57;4.83;;;;;;;;;;4986956;28;20188;-81
2022/11/03 10:03:26;;;;;;;17.73;5.80;;;;;;;;;;4987602;28;20216;-81
2022/11/03 10:05:52;;;;;;;13.40;4.83;;;;;;;;;;4988318;28;20242;-81
2022/11/03 10:08:26;;;;;;;20.60;4.73;;;;;;;;;;4991335;28;20184;-82
2022/11/03 10:10:52;;;;;;;19.60;5.13;;;;;;;;;;5000120;28;20184;-81
2022/11/03 10:13:30;;;;;;;12.53;4.70;;;;;;;;;;4992640;28;20667;-81
2022/11/03 10:15:57;;;;;;;14.50;4.90;;;;;;;;;;5008497;28;20695;-80
2022/11/03 10:18:23;;;;;;;13.80;4.80;;;;;;;;;;4989332;28;20183;-80
2022/11/03 10:20:49;;;;;;;10.50;3.97;;;;;;;;;;5006243;28;20232;-81
2022/11/03 10:23:15;;;;;;;17.67;4.27;;;;;;;;;;5008508;28;20346;-80
2022/11/03 10:25:42;;;;;;;12.03;4.43;;;;;;;;;;4988822;28;20244;-80
2022/11/03 10:28:08;;;;;;;8.93;4.17;;;;;;;;;;5004747;28;20181;-81
2022/11/03 10:30:46;;;;;;;15.97;4.33;;;;;;;;;;5004202;28;20723;-81
2022/11/03 10:33:24;;;;;;;12.43;4.33;;;;;;;;;;4991236;28;20215;-80
2022/11/03 10:35:50;;;;;;;11.83;4.27;;;;;;;;;;4993093;28;20183;-80
2022/11/03 10:38:24;;;;;;;11.57;3.90;;;;;;;;;;4992808;28;20250;-81
2022/11/03 10:40:50;;;;;;;9.67;4.00;;;;;;;;;;4989911;28;20312;-80
2022/11/03 10:43:16;;;;;;;6.70;3.10;;;;;;;;;;4990888;28;20231;-81
2022/11/03 10:45:42;;;;;;;11.57;3.40;;;;;;;;;;4988405;28;20179;-81
2022/11/03 10:48:09;;;;;;;11.73;3.97;;;;;;;;;;4993002;28;20660;-83
2022/11/03 10:50:35;;;;;;;10.70;3.63;;;;;;;;;;4986861;28;20665;-83
2022/11/03 10:53:03;;;;;;;9.47;3.47;;;;;;;;;;4991646;28;20176;-83
2022/11/03 10:55:29;;;;;;;13.57;3.60;;;;;;;;;;4993168;28;20199;-82
2022/11/03 10:57:56;;;;;;;12.20;3.40;;;;;;;;;;4990274;28;20190;-83
2022/11/03 11:00:23;;;;;;;8.27;3.30;;;;;;;;;;4993306;28;20191;-81
2022/11/03 11:02:50;;;;;;;13.23;3.83;;;;;;;;;;4995368;28;20208;-81
2022/11/03 11:05:21;;;;;;;12.63;3.80;;;;;;;;;;4998400;28;20668;-81
2022/11/03 11:07:49;;;;;;;10.40;2.93;;;;;;;;;;4975494;28;20530;-81
2022/11/03 11:10:17;;;;;;;16.23;4.20;;;;;;;;;;4992390;28;20179;-81
2022/11/03 11:13:02;;;;;;;9.97;3.67;;;;;;;;;;4989475;28;20552;-82
2022/11/03 11:15:35;;;;;;;9.90;3.70;;;;;;;;;;4992411;28;20254;-82
2022/11/03 11:18:01;;;;;;;9.63;3.23;;;;;;;;;;4983105;28;20184;-82
2022/11/03 11:20:38;;;;;;;7.87;2.83;;;;;;;;;;4977926;28;20242;-82
2022/11/03 11:23:22;;;;;;;11.90;4.07;;;;;;;;;;4974739;28;20625;-82
2022/11/03 11:26:08;;;;;;;14.13;3.93;;;;;;;;;;4972938;28;20271;-81
2022/11/03 11:28:41;;;;;;;15.63;4.27;;;;;;;;;;4972927;28;20191;-83
2022/11/03 11:31:26;;;;;;;10.17;3.57;;;;;;;;;;4986985;28;20214;-82
2022/11/03 11:34:07;;;;;;;11.70;3.07;;;;;;;;;;4983242;28;20709;-83
2022/11/03 11:36:33;;;;;;;10.67;2.97;;;;;;;;;;4980226;28;20214;-82
2022/11/03 11:39:00;;;;;;;8.03;3.00;;;;;;;;;;4981268;28;20184;-82
2022/11/03 11:41:45;;;;;;;11.53;2.70;;;;;;;;;;4988966;28;20187;-83
2022/11/03 11:44:29;;;;;;;12.50;3.20;;;;;;;;;;4991465;28;20680;-83
2022/11/03 11:46:57;;;;;;;10.57;2.90;;;;;;;;;;4988760;28;20188;-83
2022/11/03 11:49:23;;;;;;;11.17;3.13;;;;;;;;;;4987221;28;20699;-82
2022/11/03 11:51:49;;;;;;;14.80;4.00;;;;;;;;;;4981794;28;20184;-83
2022/11/03 11:54:17;;;;;;;8.33;2.97;;;;;;;;;;4979521;28;20532;-81
2022/11/03 11:56:47;;;;;;;7.57;2.87;;;;;;;;;;4974900;28;20187;-81
2022/11/03 11:59:19;;;;;;;12.40;2.97;;;;;;;;;;4975320;28;20547;-82
2022/11/03 12:01:48;;;;;;;9.03;3.10;;;;;;;;;;4987125;28;20179;-82
2022/11/03 12:04:22;;;;;;;9.43;3.33;;;;;;;;;;4990382;28;20207;-83
2022/11/03 12:06:48;;;;;;;8.57;3.17;;;;;;;;;;4991348;28;20188;-82
2022/11/03 12:09:14;;;;;;;13.37;3.23;;;;;;;;;;5007001;28;20234;-81
2022/11/03 12:11:54;;;;;;;15.20;2.93;;;;;;;;;;5006317;28;20184;-81
2022/11/03 12:14:24;;;;;;;12.83;3.20;;;;;;;;;;4990616;28;20216;-82
2022/11/03 12:16:51;;;;;;;8.90;3.07;;;;;;;;;;4990950;28;20186;-82
2022/11/03 12:19:36;;;;;;;11.53;4.37;;;;;;;;;;4989206;28;20544;-82
2022/11/03 12:22:03;;;;;;;11.07;3.23;;;;;;;;;;5005636;28;20199;-83
2022/11/03 12:24:32;;;;;;;12.50;3.13;;;;;;;;;;4980410;28;20212;-82
2022/11/03 12:27:01;;;;;;;12.40;3.03;;;;;;;;;;4979693;28;20295;-82
2022/11/03 12:29:27;;;;;;;12.67;3.03;;;;;;;;;;5006429;28;20644;-82
2022/11/03 12:31:54;;;;;;;13.00;3.17;;;;;;;;;;4990981;28;20242;-81
2022/11/03 12:34:20;;;;;;;14.50;3.50;;;;;;;;;;4990456;28;20184;-80
2022/11/03 12:36:47;;;;;;;9.90;3.17;;;;;;;;;;5006869;28;20188;-82
2022/11/03 12:39:13;;;;;;;13.97;3.43;;;;;;;;;;5003390;28;20231;-83
2022/11/03 12:41:39;;;;;;;14.07;3.50;;;;;;;;;;4989322;28;20176;-82
2022/11/03 12:44:05;;;;;;;10.77;2.73;;;;;;;;;;4990682;28;20622;-83
2022/11/03 12:46:31;;;;;;;11.63;3.00;;;;;;;;;;4991769;28;20187;-82
2022/11/03 12:48:57;;;;;;;10.87;3.10;;;;;;;;;;4991977;28;20532;-83
2022/11/03 12:51:24;;;;;;;12.20;3.43;;;;;;;;;;4986824;28;20188;-83
2022/11/03 12:53:50;;;;;;;11.30;3.20;;;;;;;;;;4987419;28;20593;-82
2022/11/03 12:56:17;;;;;;;14.60;3.43;;;;;;;;;;5006779;28;20184;-83
2022/11/03 12:58:43;;;;;;;11.07;3.13;;;;;;;;;;4991564;28;20583;-83
2022/11/03 13:01:09;;;;;;;12.20;3.50;;;;;;;;;;4996875;28;20271;-82
2022/11/03 13:03:36;;;;;;;10.03;2.80;;;;;;;;;;4972840;28;20216;-83
2022/11/03 13:06:03;;;;;;;11.00;2.87;;;;;;;;;;4986730;28;20192;-82
2022/11/03 13:08:30;;;;;;;9.80;3.10;;;;;;;;;;5006495;28;20191;-82
2022/11/03 13:10:56;;;;;;;9.20;3.03;;;;;;;;;;4993796;28;20184;-84
2022/11/03 13:13:22;;;;;;;11.10;2.93;;;;;;;;;;4994568;28;20704;-85
2022/11/03 13:15:48;;;;;;;9.40;3.13;;;;;;;;;;4994545;28;20551;-82
2022/11/03 13:18:14;;;;;;;9.73;2.83;;;;;;;;;;4989329;28;20557;-81
2022/11/03 13:20:40;;;;;;;10.83;3.67;;;;;;;;;;4977591;28;20302;-82
2022/11/03 13:23:07;;;;;;;7.67;2.90;;;;;;;;;;4993131;28;20176;-82
2022/11/03 13:25:34;;;;;;;11.03;3.40;;;;;;;;;;4989082;28;20518;-83
2022/11/03 13:28:02;;;;;;;10.33;3.27;;;;;;;;;;5008926;28;20195;-83
2022/11/03 13:30:28;;;;;;;9.40;3.17;;;;;;;;;;4995025;28;20191;-84
2022/11/03 13:32:54;;;;;;;11.33;3.20;;;;;;;;;;5009222;28;20226;-82
2022/11/03 13:35:20;;;;;;;8.23;2.90;;;;;;;;;;4978836;28;20188;-84
2022/11/03 13:37:47;;;;;;;13.73;2.90;;;;;;;;;;4993230;28;20182;-82
2022/11/03 13:40:14;;;;;;;11.23;3.33;;;;;;;;;;4982516;28;20184;-83
2022/11/03 13:42:40;;;;;;;6.07;2.50;;;;;;;;;;4980368;28;20194;-83
2022/11/03 13:45:06;;;;;;;11.03;3.23;;;;;;;;;;4984302;28;20250;-82
2022/11/03 13:47:33;;;;;;;7.10;2.93;;;;;;;;;;4994866;28;20196;-82
2022/11/03 13:49:59;;;;;;;12.77;3.37;;;;;;;;;;4993473;28;20207;-81
2022/11/03 13:52:26;;;;;;;6.43;3.00;;;;;;;;;;4993438;28;20172;-83
2022/11/03 13:54:53;;;;;;;10.23;3.53;;;;;;;;;;4989558;28;20218;-83
2022/11/03 13:57:19;;;;;;;6.13;2.70;;;;;;;;;;4993139;28;20283;-83
2022/11/03 13:59:45;;;;;;;8.93;3.10;;;;;;;;;;4994572;28;20688;-83
2022/11/03 14:02:11;;;;;;;7.70;2.70;;;;;;;;;;4996310;28;20176;-82
2022/11/03 14:04:38;;;;;;;8.13;2.87;;;;;;;;;;4999206;28;20195;-82
2022/11/03 14:07:04;;;;;;;10.10;3.33;;;;;;;;;;4993772;28;20188;-83
2022/11/03 14:09:30;;;;;;;13.97;2.83;;;;;;;;;;4993746;28;20194;-83
2022/11/03 14:14:41;;;;;;;8.00;3.40;;;;;;;;;;4994554;28;20427;-82
2022/11/03 14:17:07;;;;;;;12.57;4.10;;;;;;;;;;5007931;28;20188;-82
2022/11/03 14:19:33;;;;;;;11.67;4.23;;;;;;;;;;4993449;28;20249;-83
2022/11/03 14:21:59;;;;;;;9.87;3.80;;;;;;;;;;4983524;28;20191;-82
2022/11/03 14:24:25;;;;;;;15.80;3.50;;;;;;;;;;5005640;28;20204;-83
2022/11/03 14:26:51;;;;;;;11.27;3.90;;;;;;;;;;4980557;28;20215;-83
2022/11/03 14:29:17;;;;;;;11.00;3.10;;;;;;;;;;4991597;28;20257;-83
2022/11/03 14:31:44;;;;;;;8.47;3.10;;;;;;;;;;4988688;28;20176;-81
2022/11/03 14:34:10;;;;;;;12.27;3.60;;;;;;;;;;4991406;28;20203;-83
2022/11/03 14:36:36;;;;;;;8.57;3.40;;;;;;;;;;4994310;28;20242;-82
2022/11/03 14:39:02;;;;;;;6.63;3.10;;;;;;;;;;4993921;28;20176;-83
2022/11/03 14:44:13;;;;;;;7.77;3.03;;;;;;;;;;4994057;28;20718;-83
2022/11/03 14:46:39;;;;;;;7.83;2.83;;;;;;;;;;4992587;28;20180;-82
2022/11/03 14:49:05;;;;;;;8.67;3.00;;;;;;;;;;5008531;28;20180;-82
2022/11/03 14:51:31;;;;;;;6.07;2.97;;;;;;;;;;5002467;28;20188;-83
2022/11/03 14:53:57;;;;;;;10.47;3.60;;;;;;;;;;4992725;28;20191;-82
2022/11/03 14:56:23;;;;;;;10.53;3.50;;;;;;;;;;4991024;28;20188;-82